sensor_id;sensor_type;location;lat;lon;timestamp;temperature;humidity
3108;DHT22;1564;49.234;8.554;2023-07-30T00:01:27;19.90;99.90
3108;DHT22;1564;49.234;8.554;2023-07-30T00:03:53;19.80;99.90
3108;DHT22;1564;49.234;8.554;2023-07-30T00:06:19;19.70;99.90
3108;DHT22;1564;49.234;8.554;2023-07-30T00:08:44;19.70;99.90
3108;DHT22;1564;49.234;8.554;2023-07-30T00:11:10;19.60;99.90
3108;DHT22;1564;49.234;8.554;2023-07-30T00:13:36;19.70;99.90
3108;DHT22;1564;49.234;8.554;2023-07-30T00:16:02;19.80;99.90
3108;DHT22;1564;49.234;8.554;2023-07-30T00:18:28;19.90;99.90
3108;DHT22;1564;49.234;8.554;2023-07-30T00:20:53;19.90;99.90
3108;DHT22;1564;49.234;8.554;2023-07-30T00:23:19;19.90;99.90
3108;DHT22;1564;49.234;8.554;2023-07-30T00:25:45;19.90;99.90
3108;DHT22;1564;49.234;8.554;2023-07-30T00:28:11;20.00;99.90
3108;DHT22;1564;49.234;8.554;2023-07-30T00:30:36;20.00;99.90
3108;DHT22;1564;49.234;8.554;2023-07-30T00:33:02;20.00;99.90
3108;DHT22;1564;49.234;8.554;2023-07-30T00:35:28;20.00;99.90
3108;DHT22;1564;49.234;8.554;2023-07-30T00:37:54;19.90;99.90
3108;DHT22;1564;49.234;8.554;2023-07-30T00:40:19;19.80;99.90
3108;DHT22;1564;49.234;8.554;2023-07-30T00:42:45;19.70;99.90
3108;DHT22;1564;49.234;8.554;2023-07-30T00:45:11;19.60;99.90
3108;DHT22;1564;49.234;8.554;2023-07-30T00:47:38;19.40;99.90
3108;DHT22;1564;49.234;8.554;2023-07-30T00:50:05;19.40;99.90
3108;DHT22;1564;49.234;8.554;2023-07-30T00:52:32;19.40;99.90
3108;DHT22;1564;49.234;8.554;2023-07-30T00:54:59;19.30;99.90
3108;DHT22;1564;49.234;8.554;2023-07-30T00:57:27;19.40;99.90
3108;DHT22;1564;49.234;8.554;2023-07-30T00:59:53;19.20;99.90
3108;DHT22;1564;49.234;8.554;2023-07-30T01:02:18;19.10;99.90
3108;DHT22;1564;49.234;8.554;2023-07-30T01:04:44;19.10;99.90
3108;DHT22;1564;49.234;8.554;2023-07-30T01:07:10;19.10;99.90
3108;DHT22;1564;49.234;8.554;2023-07-30T01:09:37;19.10;99.90
3108;DHT22;1564;49.234;8.554;2023-07-30T01:12:03;19.20;99.90
3108;DHT22;1564;49.234;8.554;2023-07-30T01:14:31;19.20;99.90
3108;DHT22;1564;49.234;8.554;2023-07-30T01:16:57;19.20;99.90
3108;DHT22;1564;49.234;8.554;2023-07-30T01:19:23;19.30;99.90
3108;DHT22;1564;49.234;8.554;2023-07-30T01:21:49;19.40;99.90
3108;DHT22;1564;49.234;8.554;2023-07-30T01:24:15;19.40;99.90
3108;DHT22;1564;49.234;8.554;2023-07-30T01:26:44;19.50;99.90
3108;DHT22;1564;49.234;8.554;2023-07-30T01:29:31;19.50;99.90
3108;DHT22;1564;49.234;8.554;2023-07-30T01:32:03;19.60;99.90
3108;DHT22;1564;49.234;8.554;2023-07-30T01:34:34;19.60;99.90
3108;DHT22;1564;49.234;8.554;2023-07-30T01:37:00;19.50;99.90
3108;DHT22;1564;49.234;8.554;2023-07-30T01:39:27;19.50;99.90
3108;DHT22;1564;49.234;8.554;2023-07-30T01:41:54;19.40;99.90
3108;DHT22;1564;49.234;8.554;2023-07-30T01:44:20;19.50;99.90
3108;DHT22;1564;49.234;8.554;2023-07-30T01:46:45;19.60;99.90
3108;DHT22;1564;49.234;8.554;2023-07-30T01:49:11;19.70;99.90
3108;DHT22;1564;49.234;8.554;2023-07-30T01:51:37;19.70;99.90
3108;DHT22;1564;49.234;8.554;2023-07-30T01:54:03;19.80;99.90
3108;DHT22;1564;49.234;8.554;2023-07-30T01:56:29;19.80;99.90
3108;DHT22;1564;49.234;8.554;2023-07-30T01:58:55;19.80;99.90
3108;DHT22;1564;49.234;8.554;2023-07-30T02:01:21;19.90;99.90
3108;DHT22;1564;49.234;8.554;2023-07-30T02:03:47;19.90;99.90
3108;DHT22;1564;49.234;8.554;2023-07-30T02:06:12;19.90;99.90
3108;DHT22;1564;49.234;8.554;2023-07-30T02:08:38;19.90;99.90
3108;DHT22;1564;49.234;8.554;2023-07-30T02:11:04;19.90;99.90
3108;DHT22;1564;49.234;8.554;2023-07-30T02:13:30;19.90;99.90
3108;DHT22;1564;49.234;8.554;2023-07-30T02:15:55;19.90;99.90
3108;DHT22;1564;49.234;8.554;2023-07-30T02:18:21;19.90;99.90
3108;DHT22;1564;49.234;8.554;2023-07-30T02:20:47;19.90;99.90
3108;DHT22;1564;49.234;8.554;2023-07-30T02:23:14;19.90;99.90
3108;DHT22;1564;49.234;8.554;2023-07-30T02:25:43;19.90;99.90
3108;DHT22;1564;49.234;8.554;2023-07-30T02:28:09;20.00;99.90
3108;DHT22;1564;49.234;8.554;2023-07-30T02:30:35;20.00;99.90
3108;DHT22;1564;49.234;8.554;2023-07-30T02:33:01;20.00;99.90
3108;DHT22;1564;49.234;8.554;2023-07-30T02:35:27;20.10;99.90
3108;DHT22;1564;49.234;8.554;2023-07-30T02:37:53;20.10;99.90
3108;DHT22;1564;49.234;8.554;2023-07-30T02:40:18;20.10;99.90
3108;DHT22;1564;49.234;8.554;2023-07-30T02:42:44;20.10;99.90
3108;DHT22;1564;49.234;8.554;2023-07-30T02:45:10;20.10;99.90
3108;DHT22;1564;49.234;8.554;2023-07-30T02:47:36;20.10;99.90
3108;DHT22;1564;49.234;8.554;2023-07-30T02:50:03;20.10;99.90
3108;DHT22;1564;49.234;8.554;2023-07-30T02:52:29;20.20;99.90
3108;DHT22;1564;49.234;8.554;2023-07-30T02:54:55;20.20;99.90
3108;DHT22;1564;49.234;8.554;2023-07-30T02:57:21;20.20;99.90
3108;DHT22;1564;49.234;8.554;2023-07-30T02:59:46;20.20;99.90
3108;DHT22;1564;49.234;8.554;2023-07-30T03:02:12;20.20;99.90
3108;DHT22;1564;49.234;8.554;2023-07-30T03:04:38;20.20;99.90
3108;DHT22;1564;49.234;8.554;2023-07-30T03:07:05;20.20;99.90
3108;DHT22;1564;49.234;8.554;2023-07-30T03:09:30;20.20;99.90
3108;DHT22;1564;49.234;8.554;2023-07-30T03:11:56;20.20;99.90
3108;DHT22;1564;49.234;8.554;2023-07-30T03:14:22;20.30;99.90
3108;DHT22;1564;49.234;8.554;2023-07-30T03:16:48;20.30;99.90
3108;DHT22;1564;49.234;8.554;2023-07-30T03:19:14;20.30;99.90
3108;DHT22;1564;49.234;8.554;2023-07-30T03:21:40;20.40;99.90
3108;DHT22;1564;49.234;8.554;2023-07-30T03:24:06;20.30;99.90
3108;DHT22;1564;49.234;8.554;2023-07-30T03:26:31;20.40;99.70
3108;DHT22;1564;49.234;8.554;2023-07-30T03:28:57;20.40;99.90
3108;DHT22;1564;49.234;8.554;2023-07-30T03:31:23;20.40;99.80
3108;DHT22;1564;49.234;8.554;2023-07-30T03:33:49;20.40;99.90
3108;DHT22;1564;49.234;8.554;2023-07-30T03:36:15;20.50;99.90
3108;DHT22;1564;49.234;8.554;2023-07-30T03:38:41;20.50;99.90
3108;DHT22;1564;49.234;8.554;2023-07-30T03:41:08;20.50;99.90
3108;DHT22;1564;49.234;8.554;2023-07-30T03:43:34;20.50;99.30
3108;DHT22;1564;49.234;8.554;2023-07-30T03:46:00;20.50;97.70
3108;DHT22;1564;49.234;8.554;2023-07-30T03:48:26;20.50;97.70
3108;DHT22;1564;49.234;8.554;2023-07-30T03:50:53;20.50;96.90
3108;DHT22;1564;49.234;8.554;2023-07-30T03:53:19;20.50;96.20
3108;DHT22;1564;49.234;8.554;2023-07-30T03:55:45;20.50;95.80
3108;DHT22;1564;49.234;8.554;2023-07-30T03:58:10;20.40;96.40
3108;DHT22;1564;49.234;8.554;2023-07-30T04:00:36;20.30;97.90
3108;DHT22;1564;49.234;8.554;2023-07-30T04:03:02;20.20;99.90
3108;DHT22;1564;49.234;8.554;2023-07-30T04:05:28;20.10;99.90
3108;DHT22;1564;49.234;8.554;2023-07-30T04:07:54;19.90;99.90
3108;DHT22;1564;49.234;8.554;2023-07-30T04:10:20;19.90;99.90
3108;DHT22;1564;49.234;8.554;2023-07-30T04:12:45;19.80;99.90
3108;DHT22;1564;49.234;8.554;2023-07-30T04:15:11;19.70;99.90
3108;DHT22;1564;49.234;8.554;2023-07-30T04:17:37;19.80;99.90
3108;DHT22;1564;49.234;8.554;2023-07-30T04:20:04;19.60;99.90
3108;DHT22;1564;49.234;8.554;2023-07-30T04:22:30;19.50;99.90
3108;DHT22;1564;49.234;8.554;2023-07-30T04:24:56;19.60;99.90
3108;DHT22;1564;49.234;8.554;2023-07-30T04:27:22;19.60;99.90
3108;DHT22;1564;49.234;8.554;2023-07-30T04:29:48;19.50;99.90
3108;DHT22;1564;49.234;8.554;2023-07-30T04:32:14;19.60;99.90
3108;DHT22;1564;49.234;8.554;2023-07-30T04:34:40;19.60;99.90
3108;DHT22;1564;49.234;8.554;2023-07-30T04:37:06;19.60;99.90
3108;DHT22;1564;49.234;8.554;2023-07-30T04:39:32;19.60;99.90
3108;DHT22;1564;49.234;8.554;2023-07-30T04:41:58;19.70;99.90
3108;DHT22;1564;49.234;8.554;2023-07-30T04:44:24;19.90;99.90
3108;DHT22;1564;49.234;8.554;2023-07-30T04:46:50;20.00;99.90
3108;DHT22;1564;49.234;8.554;2023-07-30T04:49:15;20.00;99.90
3108;DHT22;1564;49.234;8.554;2023-07-30T04:51:41;20.10;99.90
3108;DHT22;1564;49.234;8.554;2023-07-30T04:54:07;20.10;99.90
3108;DHT22;1564;49.234;8.554;2023-07-30T04:56:33;20.20;99.90
3108;DHT22;1564;49.234;8.554;2023-07-30T04:59:00;20.40;99.90
3108;DHT22;1564;49.234;8.554;2023-07-30T05:01:26;20.40;99.90
3108;DHT22;1564;49.234;8.554;2023-07-30T05:03:52;20.50;99.90
3108;DHT22;1564;49.234;8.554;2023-07-30T05:06:18;20.20;99.90
3108;DHT22;1564;49.234;8.554;2023-07-30T05:08:44;20.00;99.90
3108;DHT22;1564;49.234;8.554;2023-07-30T05:11:10;19.90;99.90
3108;DHT22;1564;49.234;8.554;2023-07-30T05:13:36;19.90;99.90
3108;DHT22;1564;49.234;8.554;2023-07-30T05:16:01;19.90;99.90
3108;DHT22;1564;49.234;8.554;2023-07-30T05:18:27;20.00;99.90
3108;DHT22;1564;49.234;8.554;2023-07-30T05:20:54;20.00;99.90
3108;DHT22;1564;49.234;8.554;2023-07-30T05:23:19;20.10;99.90
3108;DHT22;1564;49.234;8.554;2023-07-30T05:25:45;20.20;99.90
3108;DHT22;1564;49.234;8.554;2023-07-30T05:28:11;20.30;99.90
3108;DHT22;1564;49.234;8.554;2023-07-30T05:30:37;20.30;99.90
3108;DHT22;1564;49.234;8.554;2023-07-30T05:33:03;20.40;99.90
3108;DHT22;1564;49.234;8.554;2023-07-30T05:35:29;20.40;99.90
3108;DHT22;1564;49.234;8.554;2023-07-30T05:37:54;20.50;99.90
3108;DHT22;1564;49.234;8.554;2023-07-30T05:40:21;20.50;99.90
3108;DHT22;1564;49.234;8.554;2023-07-30T05:42:47;20.50;99.90
3108;DHT22;1564;49.234;8.554;2023-07-30T05:45:13;20.60;99.90
3108;DHT22;1564;49.234;8.554;2023-07-30T05:47:38;20.70;99.90
3108;DHT22;1564;49.234;8.554;2023-07-30T05:50:08;21.00;99.90
3108;DHT22;1564;49.234;8.554;2023-07-30T05:52:34;21.00;99.90
3108;DHT22;1564;49.234;8.554;2023-07-30T05:55:00;21.20;99.90
3108;DHT22;1564;49.234;8.554;2023-07-30T05:57:26;21.20;95.70
3108;DHT22;1564;49.234;8.554;2023-07-30T05:59:52;21.30;97.10
3108;DHT22;1564;49.234;8.554;2023-07-30T06:02:18;21.20;99.60
3108;DHT22;1564;49.234;8.554;2023-07-30T06:04:44;21.10;99.80
3108;DHT22;1564;49.234;8.554;2023-07-30T06:07:10;20.90;99.90
3108;DHT22;1564;49.234;8.554;2023-07-30T06:09:36;21.00;99.90
3108;DHT22;1564;49.234;8.554;2023-07-30T06:12:02;21.20;99.90
3108;DHT22;1564;49.234;8.554;2023-07-30T06:14:28;21.40;96.10
3108;DHT22;1564;49.234;8.554;2023-07-30T06:16:54;21.50;94.80
3108;DHT22;1564;49.234;8.554;2023-07-30T06:19:20;21.70;97.60
3108;DHT22;1564;49.234;8.554;2023-07-30T06:21:46;21.90;78.40
3108;DHT22;1564;49.234;8.554;2023-07-30T06:24:12;21.90;65.90
3108;DHT22;1564;49.234;8.554;2023-07-30T06:26:37;22.10;73.50
3108;DHT22;1564;49.234;8.554;2023-07-30T06:29:03;22.20;44.00
3108;DHT22;1564;49.234;8.554;2023-07-30T06:31:29;22.30;56.80
3108;DHT22;1564;49.234;8.554;2023-07-30T06:33:55;22.40;31.80
3108;DHT22;1564;49.234;8.554;2023-07-30T06:36:21;22.40;26.10
3108;DHT22;1564;49.234;8.554;2023-07-30T06:38:47;22.20;46.60
3108;DHT22;1564;49.234;8.554;2023-07-30T06:41:14;22.30;75.90
3108;DHT22;1564;49.234;8.554;2023-07-30T06:43:40;22.50;56.40
3108;DHT22;1564;49.234;8.554;2023-07-30T06:46:06;22.10;50.40
3108;DHT22;1564;49.234;8.554;2023-07-30T06:48:31;21.70;80.60
3108;DHT22;1564;49.234;8.554;2023-07-30T06:50:57;21.60;79.80
3108;DHT22;1564;49.234;8.554;2023-07-30T06:53:23;21.50;92.80
3108;DHT22;1564;49.234;8.554;2023-07-30T06:55:49;21.20;83.50
3108;DHT22;1564;49.234;8.554;2023-07-30T06:58:15;21.00;94.70
3108;DHT22;1564;49.234;8.554;2023-07-30T07:00:40;21.00;99.90
3108;DHT22;1564;49.234;8.554;2023-07-30T07:03:06;21.00;99.60
3108;DHT22;1564;49.234;8.554;2023-07-30T07:05:32;21.00;99.90
3108;DHT22;1564;49.234;8.554;2023-07-30T07:07:58;20.90;99.90
3108;DHT22;1564;49.234;8.554;2023-07-30T07:10:23;20.90;99.90
3108;DHT22;1564;49.234;8.554;2023-07-30T07:12:49;20.70;99.90
3108;DHT22;1564;49.234;8.554;2023-07-30T07:15:15;20.50;99.90
3108;DHT22;1564;49.234;8.554;2023-07-30T07:17:41;20.50;99.90
3108;DHT22;1564;49.234;8.554;2023-07-30T07:20:07;20.40;99.90
3108;DHT22;1564;49.234;8.554;2023-07-30T07:22:33;20.70;99.90
3108;DHT22;1564;49.234;8.554;2023-07-30T07:25:00;20.70;99.90
3108;DHT22;1564;49.234;8.554;2023-07-30T07:27:25;20.80;99.90
3108;DHT22;1564;49.234;8.554;2023-07-30T07:29:52;20.80;99.90
3108;DHT22;1564;49.234;8.554;2023-07-30T07:32:18;20.80;99.90
3108;DHT22;1564;49.234;8.554;2023-07-30T07:34:47;20.50;99.90
3108;DHT22;1564;49.234;8.554;2023-07-30T07:37:14;20.40;99.90
3108;DHT22;1564;49.234;8.554;2023-07-30T07:39:41;20.30;99.90
3108;DHT22;1564;49.234;8.554;2023-07-30T07:42:07;20.60;99.90
3108;DHT22;1564;49.234;8.554;2023-07-30T07:44:33;20.60;99.90
3108;DHT22;1564;49.234;8.554;2023-07-30T07:46:58;20.60;99.90
3108;DHT22;1564;49.234;8.554;2023-07-30T07:49:24;20.60;99.90
3108;DHT22;1564;49.234;8.554;2023-07-30T07:51:50;20.70;99.90
3108;DHT22;1564;49.234;8.554;2023-07-30T07:54:16;20.90;98.10
3108;DHT22;1564;49.234;8.554;2023-07-30T07:56:41;20.90;97.10
3108;DHT22;1564;49.234;8.554;2023-07-30T07:59:07;21.10;99.90
3108;DHT22;1564;49.234;8.554;2023-07-30T08:01:33;21.40;95.90
3108;DHT22;1564;49.234;8.554;2023-07-30T08:03:59;21.70;83.00
3108;DHT22;1564;49.234;8.554;2023-07-30T08:06:25;21.80;60.40
3108;DHT22;1564;49.234;8.554;2023-07-30T08:08:50;21.90;54.00
3108;DHT22;1564;49.234;8.554;2023-07-30T08:11:16;22.00;43.50
3108;DHT22;1564;49.234;8.554;2023-07-30T08:13:42;22.00;57.20
3108;DHT22;1564;49.234;8.554;2023-07-30T08:16:08;22.20;52.90
3108;DHT22;1564;49.234;8.554;2023-07-30T08:18:34;22.10;37.50
3108;DHT22;1564;49.234;8.554;2023-07-30T08:21:00;21.90;26.20
3108;DHT22;1564;49.234;8.554;2023-07-30T08:23:26;22.20;37.20
3108;DHT22;1564;49.234;8.554;2023-07-30T08:25:51;22.30;17.00
3108;DHT22;1564;49.234;8.554;2023-07-30T08:28:17;22.60;1.00
3108;DHT22;1564;49.234;8.554;2023-07-30T08:30:43;22.70;1.30
3108;DHT22;1564;49.234;8.554;2023-07-30T08:33:09;22.50;1.00
3108;DHT22;1564;49.234;8.554;2023-07-30T08:35:34;22.30;1.00
3108;DHT22;1564;49.234;8.554;2023-07-30T08:38:00;22.30;1.00
3108;DHT22;1564;49.234;8.554;2023-07-30T08:40:26;22.30;1.00
3108;DHT22;1564;49.234;8.554;2023-07-30T08:42:52;22.30;1.00
3108;DHT22;1564;49.234;8.554;2023-07-30T08:45:18;22.20;1.00
3108;DHT22;1564;49.234;8.554;2023-07-30T08:47:45;22.30;1.00
3108;DHT22;1564;49.234;8.554;2023-07-30T08:50:10;22.50;1.00
3108;DHT22;1564;49.234;8.554;2023-07-30T08:52:37;22.60;1.00
3108;DHT22;1564;49.234;8.554;2023-07-30T08:55:03;22.70;1.00
3108;DHT22;1564;49.234;8.554;2023-07-30T08:57:30;22.80;1.00
3108;DHT22;1564;49.234;8.554;2023-07-30T09:00:06;23.00;99.90
3108;DHT22;1564;49.234;8.554;2023-07-30T09:02:51;23.00;1.00
3108;DHT22;1564;49.234;8.554;2023-07-30T09:05:20;23.30;99.90
3108;DHT22;1564;49.234;8.554;2023-07-30T09:07:46;23.50;1.00
3108;DHT22;1564;49.234;8.554;2023-07-30T09:10:12;23.50;99.90
3108;DHT22;1564;49.234;8.554;2023-07-30T09:12:38;23.40;1.00
3108;DHT22;1564;49.234;8.554;2023-07-30T09:15:05;23.20;1.00
3108;DHT22;1564;49.234;8.554;2023-07-30T09:17:32;23.50;1.00
3108;DHT22;1564;49.234;8.554;2023-07-30T09:20:02;23.40;99.90
3108;DHT22;1564;49.234;8.554;2023-07-30T09:22:33;23.30;99.90
3108;DHT22;1564;49.234;8.554;2023-07-30T09:25:02;23.40;1.00
3108;DHT22;1564;49.234;8.554;2023-07-30T09:27:28;23.50;1.00
3108;DHT22;1564;49.234;8.554;2023-07-30T09:29:59;23.40;99.90
3108;DHT22;1564;49.234;8.554;2023-07-30T09:32:32;23.60;1.00
3108;DHT22;1564;49.234;8.554;2023-07-30T09:35:09;23.50;1.00
3108;DHT22;1564;49.234;8.554;2023-07-30T09:37:40;23.60;1.00
3108;DHT22;1564;49.234;8.554;2023-07-30T09:40:12;23.60;1.00
3108;DHT22;1564;49.234;8.554;2023-07-30T09:42:41;23.40;1.00
3108;DHT22;1564;49.234;8.554;2023-07-30T09:45:08;23.10;1.00
3108;DHT22;1564;49.234;8.554;2023-07-30T09:47:49;22.90;95.30
3108;DHT22;1564;49.234;8.554;2023-07-30T09:50:15;22.80;99.90
3108;DHT22;1564;49.234;8.554;2023-07-30T09:52:42;23.30;99.90
3108;DHT22;1564;49.234;8.554;2023-07-30T09:55:08;23.60;99.90
3108;DHT22;1564;49.234;8.554;2023-07-30T09:57:34;23.60;99.90
3108;DHT22;1564;49.234;8.554;2023-07-30T10:00:01;23.90;1.00
3108;DHT22;1564;49.234;8.554;2023-07-30T10:02:29;23.70;99.90
3108;DHT22;1564;49.234;8.554;2023-07-30T10:04:59;23.20;14.20
3108;DHT22;1564;49.234;8.554;2023-07-30T10:07:27;23.10;1.00
3108;DHT22;1564;49.234;8.554;2023-07-30T10:09:58;23.20;99.90
3108;DHT22;1564;49.234;8.554;2023-07-30T10:12:31;23.20;99.90
3108;DHT22;1564;49.234;8.554;2023-07-30T10:14:57;23.10;1.00
3108;DHT22;1564;49.234;8.554;2023-07-30T10:17:23;23.10;1.00
3108;DHT22;1564;49.234;8.554;2023-07-30T10:19:50;23.10;1.00
3108;DHT22;1564;49.234;8.554;2023-07-30T10:22:33;23.20;45.70
3108;DHT22;1564;49.234;8.554;2023-07-30T10:25:04;23.10;1.00
3108;DHT22;1564;49.234;8.554;2023-07-30T10:27:40;23.30;1.00
3108;DHT22;1564;49.234;8.554;2023-07-30T10:30:14;23.60;1.00
3108;DHT22;1564;49.234;8.554;2023-07-30T10:32:59;23.60;1.00
3108;DHT22;1564;49.234;8.554;2023-07-30T10:37:22;23.50;1.00
3108;DHT22;1564;49.234;8.554;2023-07-30T10:39:50;23.30;1.00
3108;DHT22;1564;49.234;8.554;2023-07-30T10:42:15;23.20;99.90
3108;DHT22;1564;49.234;8.554;2023-07-30T10:44:44;23.00;99.90
3108;DHT22;1564;49.234;8.554;2023-07-30T10:47:13;23.20;99.90
3108;DHT22;1564;49.234;8.554;2023-07-30T10:49:39;23.30;99.90
3108;DHT22;1564;49.234;8.554;2023-07-30T10:52:06;23.20;10.60
3108;DHT22;1564;49.234;8.554;2023-07-30T10:54:37;23.30;1.00
3108;DHT22;1564;49.234;8.554;2023-07-30T10:57:17;23.20;99.90
3108;DHT22;1564;49.234;8.554;2023-07-30T10:59:43;22.80;1.00
3108;DHT22;1564;49.234;8.554;2023-07-30T11:02:08;22.60;99.90
3108;DHT22;1564;49.234;8.554;2023-07-30T11:04:35;22.60;99.90
3108;DHT22;1564;49.234;8.554;2023-07-30T11:07:00;22.50;99.90
3108;DHT22;1564;49.234;8.554;2023-07-30T11:09:27;22.60;15.90
3108;DHT22;1564;49.234;8.554;2023-07-30T11:11:55;22.80;1.00
3108;DHT22;1564;49.234;8.554;2023-07-30T11:14:22;22.90;1.00
3108;DHT22;1564;49.234;8.554;2023-07-30T11:16:52;23.00;99.90
3108;DHT22;1564;49.234;8.554;2023-07-30T11:19:19;23.00;99.90
3108;DHT22;1564;49.234;8.554;2023-07-30T11:21:49;23.00;99.90
3108;DHT22;1564;49.234;8.554;2023-07-30T11:24:18;23.10;1.00
3108;DHT22;1564;49.234;8.554;2023-07-30T11:27:00;23.20;1.00
3108;DHT22;1564;49.234;8.554;2023-07-30T11:29:26;23.50;1.00
3108;DHT22;1564;49.234;8.554;2023-07-30T11:31:56;23.30;1.00
3108;DHT22;1564;49.234;8.554;2023-07-30T11:34:23;23.10;1.00
3108;DHT22;1564;49.234;8.554;2023-07-30T11:36:49;23.20;1.00
3108;DHT22;1564;49.234;8.554;2023-07-30T11:48:11;24.20;1.00
3108;DHT22;1564;49.234;8.554;2023-07-30T11:50:52;23.70;99.90
3108;DHT22;1564;49.234;8.554;2023-07-30T11:53:20;23.20;1.00
3108;DHT22;1564;49.234;8.554;2023-07-30T12:42:11;23.50;1.00
3108;DHT22;1564;49.234;8.554;2023-07-30T12:44:37;23.00;99.90
3108;DHT22;1564;49.234;8.554;2023-07-30T12:47:03;22.80;99.90
3108;DHT22;1564;49.234;8.554;2023-07-30T12:49:29;22.80;99.90
3108;DHT22;1564;49.234;8.554;2023-07-30T12:51:54;23.10;99.90
3108;DHT22;1564;49.234;8.554;2023-07-30T12:54:20;23.20;99.90
3108;DHT22;1564;49.234;8.554;2023-07-30T12:56:46;23.90;99.90
3108;DHT22;1564;49.234;8.554;2023-07-30T12:59:12;24.50;99.90
3108;DHT22;1564;49.234;8.554;2023-07-30T13:01:37;24.20;99.90
3108;DHT22;1564;49.234;8.554;2023-07-30T13:04:03;24.40;99.90
3108;DHT22;1564;49.234;8.554;2023-07-30T13:06:29;24.80;99.90
3108;DHT22;1564;49.234;8.554;2023-07-30T13:08:55;25.20;99.90
3108;DHT22;1564;49.234;8.554;2023-07-30T13:11:21;25.30;99.90
3108;DHT22;1564;49.234;8.554;2023-07-30T13:13:46;25.90;99.90
3108;DHT22;1564;49.234;8.554;2023-07-30T13:16:12;25.60;99.90
3108;DHT22;1564;49.234;8.554;2023-07-30T13:18:38;25.20;99.90
3108;DHT22;1564;49.234;8.554;2023-07-30T13:21:04;25.00;99.90
3108;DHT22;1564;49.234;8.554;2023-07-30T13:23:29;24.90;99.90
3108;DHT22;1564;49.234;8.554;2023-07-30T13:25:56;24.70;99.90
3108;DHT22;1564;49.234;8.554;2023-07-30T13:28:21;24.50;99.90
3108;DHT22;1564;49.234;8.554;2023-07-30T13:30:47;24.60;99.90
3108;DHT22;1564;49.234;8.554;2023-07-30T13:33:13;24.60;99.90
3108;DHT22;1564;49.234;8.554;2023-07-30T13:35:39;25.80;99.90
3108;DHT22;1564;49.234;8.554;2023-07-30T13:38:04;25.70;99.90
3108;DHT22;1564;49.234;8.554;2023-07-30T13:40:30;25.20;99.90
3108;DHT22;1564;49.234;8.554;2023-07-30T13:42:56;25.00;99.90
3108;DHT22;1564;49.234;8.554;2023-07-30T13:45:22;24.90;99.90
3108;DHT22;1564;49.234;8.554;2023-07-30T13:47:48;25.00;99.90
3108;DHT22;1564;49.234;8.554;2023-07-30T13:50:14;25.40;99.90
3108;DHT22;1564;49.234;8.554;2023-07-30T13:52:39;27.80;94.80
3108;DHT22;1564;49.234;8.554;2023-07-30T13:55:06;30.00;23.20
3108;DHT22;1564;49.234;8.554;2023-07-30T13:57:31;30.40;1.00
3108;DHT22;1564;49.234;8.554;2023-07-30T13:59:57;29.80;1.00
3108;DHT22;1564;49.234;8.554;2023-07-30T14:02:23;29.70;1.00
3108;DHT22;1564;49.234;8.554;2023-07-30T14:04:49;31.00;1.00
3108;DHT22;1564;49.234;8.554;2023-07-30T14:07:15;30.30;1.00
3108;DHT22;1564;49.234;8.554;2023-07-30T14:09:40;28.60;1.00
3108;DHT22;1564;49.234;8.554;2023-07-30T14:12:08;27.20;7.50
3108;DHT22;1564;49.234;8.554;2023-07-30T14:14:34;27.90;24.30
3108;DHT22;1564;49.234;8.554;2023-07-30T14:17:00;29.00;11.00
3108;DHT22;1564;49.234;8.554;2023-07-30T14:19:31;30.10;1.00
3108;DHT22;1564;49.234;8.554;2023-07-30T14:21:58;30.80;1.00
3108;DHT22;1564;49.234;8.554;2023-07-30T14:24:23;31.00;1.00
3108;DHT22;1564;49.234;8.554;2023-07-30T14:26:49;31.30;1.00
3108;DHT22;1564;49.234;8.554;2023-07-30T14:29:15;30.00;1.00
3108;DHT22;1564;49.234;8.554;2023-07-30T14:31:41;28.80;1.00
3108;DHT22;1564;49.234;8.554;2023-07-30T14:34:07;27.70;1.00
3108;DHT22;1564;49.234;8.554;2023-07-30T14:36:32;26.80;4.30
3108;DHT22;1564;49.234;8.554;2023-07-30T14:38:58;26.40;24.00
3108;DHT22;1564;49.234;8.554;2023-07-30T14:41:24;26.30;32.00
3108;DHT22;1564;49.234;8.554;2023-07-30T14:43:50;27.80;2.60
3108;DHT22;1564;49.234;8.554;2023-07-30T14:46:15;27.90;1.00
3108;DHT22;1564;49.234;8.554;2023-07-30T14:48:41;28.60;1.00
3108;DHT22;1564;49.234;8.554;2023-07-30T14:51:08;30.30;1.00
3108;DHT22;1564;49.234;8.554;2023-07-30T14:53:34;31.60;1.00
3108;DHT22;1564;49.234;8.554;2023-07-30T14:56:00;30.70;1.00
3108;DHT22;1564;49.234;8.554;2023-07-30T14:58:26;28.70;1.00
3108;DHT22;1564;49.234;8.554;2023-07-30T15:00:52;27.50;1.00
3108;DHT22;1564;49.234;8.554;2023-07-30T15:03:17;26.60;1.00
3108;DHT22;1564;49.234;8.554;2023-07-30T15:05:43;25.90;1.00
3108;DHT22;1564;49.234;8.554;2023-07-30T15:08:09;26.70;1.00
3108;DHT22;1564;49.234;8.554;2023-07-30T15:10:35;27.70;1.00
3108;DHT22;1564;49.234;8.554;2023-07-30T15:13:00;27.20;1.00
3108;DHT22;1564;49.234;8.554;2023-07-30T15:15:26;27.10;1.00
3108;DHT22;1564;49.234;8.554;2023-07-30T15:17:52;27.00;1.00
3108;DHT22;1564;49.234;8.554;2023-07-30T15:20:18;27.40;1.00
3108;DHT22;1564;49.234;8.554;2023-07-30T15:22:44;29.30;1.00
3108;DHT22;1564;49.234;8.554;2023-07-30T15:25:09;31.60;1.00
3108;DHT22;1564;49.234;8.554;2023-07-30T15:27:35;33.50;1.00
3108;DHT22;1564;49.234;8.554;2023-07-30T15:30:01;34.10;1.00
3108;DHT22;1564;49.234;8.554;2023-07-30T15:32:28;33.30;1.00
3108;DHT22;1564;49.234;8.554;2023-07-30T15:34:56;32.80;1.00
3108;DHT22;1564;49.234;8.554;2023-07-30T15:37:22;32.30;1.00
3108;DHT22;1564;49.234;8.554;2023-07-30T15:39:47;31.30;1.00
3108;DHT22;1564;49.234;8.554;2023-07-30T15:42:13;30.30;1.00
3108;DHT22;1564;49.234;8.554;2023-07-30T15:44:39;30.40;1.00
3108;DHT22;1564;49.234;8.554;2023-07-30T15:47:05;29.90;1.00
3108;DHT22;1564;49.234;8.554;2023-07-30T15:49:31;29.00;1.00
3108;DHT22;1564;49.234;8.554;2023-07-30T15:51:57;27.60;1.00
3108;DHT22;1564;49.234;8.554;2023-07-30T15:54:36;27.20;1.00
3108;DHT22;1564;49.234;8.554;2023-07-30T15:57:03;28.10;1.00
3108;DHT22;1564;49.234;8.554;2023-07-30T15:59:32;28.50;1.00
3108;DHT22;1564;49.234;8.554;2023-07-30T16:01:58;28.20;1.00
3108;DHT22;1564;49.234;8.554;2023-07-30T16:04:24;27.70;1.00
3108;DHT22;1564;49.234;8.554;2023-07-30T16:06:50;27.50;1.00
3108;DHT22;1564;49.234;8.554;2023-07-30T16:09:16;27.30;1.00
3108;DHT22;1564;49.234;8.554;2023-07-30T16:11:42;27.00;1.00
3108;DHT22;1564;49.234;8.554;2023-07-30T16:14:08;28.30;1.00
3108;DHT22;1564;49.234;8.554;2023-07-30T16:16:33;30.10;1.00
3108;DHT22;1564;49.234;8.554;2023-07-30T16:19:01;30.90;1.00
3108;DHT22;1564;49.234;8.554;2023-07-30T16:21:27;29.40;1.00
3108;DHT22;1564;49.234;8.554;2023-07-30T16:23:53;28.60;1.00
3108;DHT22;1564;49.234;8.554;2023-07-30T16:26:19;27.90;1.00
3108;DHT22;1564;49.234;8.554;2023-07-30T16:28:45;27.30;1.00
3108;DHT22;1564;49.234;8.554;2023-07-30T16:31:10;27.00;1.00
3108;DHT22;1564;49.234;8.554;2023-07-30T16:33:36;27.00;1.00
3108;DHT22;1564;49.234;8.554;2023-07-30T16:36:03;26.90;1.00
3108;DHT22;1564;49.234;8.554;2023-07-30T16:38:32;27.10;1.00
3108;DHT22;1564;49.234;8.554;2023-07-30T16:41:00;27.50;1.00
3108;DHT22;1564;49.234;8.554;2023-07-30T16:43:26;27.10;1.00
3108;DHT22;1564;49.234;8.554;2023-07-30T16:45:52;25.90;1.00
3108;DHT22;1564;49.234;8.554;2023-07-30T16:48:18;25.50;1.00
3108;DHT22;1564;49.234;8.554;2023-07-30T16:50:45;25.00;1.00
3108;DHT22;1564;49.234;8.554;2023-07-30T16:53:11;24.40;1.00
3108;DHT22;1564;49.234;8.554;2023-07-30T16:55:37;23.80;1.00
3108;DHT22;1564;49.234;8.554;2023-07-30T16:58:02;23.40;1.30
3108;DHT22;1564;49.234;8.554;2023-07-30T17:00:28;23.20;25.00